sensor_id;sensor_type;location;lat;lon;timestamp;P1;durP1;ratioP1;P2;durP2;ratioP2
30617;SDS011;17384;51.214;9.202;2023-11-22T00:02:05;12.98;;;7.03;;
30617;SDS011;17384;51.214;9.202;2023-11-22T00:04:31;13.05;;;6.72;;
30617;SDS011;17384;51.214;9.202;2023-11-22T00:06:56;11.82;;;6.97;;
30617;SDS011;17384;51.214;9.202;2023-11-22T00:09:22;13.88;;;6.90;;
30617;SDS011;17384;51.214;9.202;2023-11-22T00:11:48;11.25;;;6.82;;
30617;SDS011;17384;51.214;9.202;2023-11-22T00:14:14;10.65;;;6.05;;
30617;SDS011;17384;51.214;9.202;2023-11-22T00:16:40;10.93;;;6.10;;
30617;SDS011;17384;51.214;9.202;2023-11-22T00:19:05;12.27;;;6.35;;
30617;SDS011;17384;51.214;9.202;2023-11-22T00:21:31;13.43;;;6.53;;
30617;SDS011;17384;51.214;9.202;2023-11-22T00:23:57;13.45;;;6.07;;
30617;SDS011;17384;51.214;9.202;2023-11-22T00:26:22;16.25;;;6.88;;
30617;SDS011;17384;51.214;9.202;2023-11-22T00:28:48;9.18;;;6.10;;
30617;SDS011;17384;51.214;9.202;2023-11-22T00:31:14;11.70;;;5.88;;
30617;SDS011;17384;51.214;9.202;2023-11-22T00:33:40;10.00;;;5.65;;
30617;SDS011;17384;51.214;9.202;2023-11-22T00:36:05;10.25;;;6.13;;
30617;SDS011;17384;51.214;9.202;2023-11-22T00:38:33;14.40;;;6.32;;
30617;SDS011;17384;51.214;9.202;2023-11-22T00:41:01;12.82;;;6.15;;
30617;SDS011;17384;51.214;9.202;2023-11-22T00:43:27;15.27;;;6.82;;
30617;SDS011;17384;51.214;9.202;2023-11-22T00:45:52;13.55;;;5.55;;
30617;SDS011;17384;51.214;9.202;2023-11-22T00:48:18;7.43;;;5.22;;
30617;SDS011;17384;51.214;9.202;2023-11-22T00:50:43;11.70;;;5.72;;
30617;SDS011;17384;51.214;9.202;2023-11-22T00:53:09;10.48;;;5.68;;
30617;SDS011;17384;51.214;9.202;2023-11-22T00:55:34;9.77;;;5.75;;
30617;SDS011;17384;51.214;9.202;2023-11-22T00:58:00;11.85;;;6.07;;
30617;SDS011;17384;51.214;9.202;2023-11-22T01:00:29;12.63;;;6.03;;
30617;SDS011;17384;51.214;9.202;2023-11-22T01:02:55;13.48;;;6.53;;
30617;SDS011;17384;51.214;9.202;2023-11-22T01:05:20;13.18;;;7.03;;
30617;SDS011;17384;51.214;9.202;2023-11-22T01:07:47;12.52;;;6.60;;
30617;SDS011;17384;51.214;9.202;2023-11-22T01:10:13;14.48;;;7.00;;
30617;SDS011;17384;51.214;9.202;2023-11-22T01:12:38;16.83;;;7.15;;
30617;SDS011;17384;51.214;9.202;2023-11-22T01:15:04;13.77;;;7.05;;
30617;SDS011;17384;51.214;9.202;2023-11-22T01:17:31;12.63;;;6.00;;
30617;SDS011;17384;51.214;9.202;2023-11-22T01:19:56;14.23;;;6.75;;
30617;SDS011;17384;51.214;9.202;2023-11-22T01:22:23;16.10;;;7.18;;
30617;SDS011;17384;51.214;9.202;2023-11-22T01:24:49;12.82;;;6.38;;
30617;SDS011;17384;51.214;9.202;2023-11-22T01:27:14;11.82;;;5.80;;
30617;SDS011;17384;51.214;9.202;2023-11-22T01:29:40;9.85;;;5.70;;
30617;SDS011;17384;51.214;9.202;2023-11-22T01:32:06;12.05;;;6.40;;
30617;SDS011;17384;51.214;9.202;2023-11-22T01:34:33;11.98;;;6.72;;
30617;SDS011;17384;51.214;9.202;2023-11-22T01:36:59;11.95;;;6.35;;
30617;SDS011;17384;51.214;9.202;2023-11-22T01:39:25;12.77;;;6.88;;
30617;SDS011;17384;51.214;9.202;2023-11-22T01:41:51;10.70;;;5.97;;
30617;SDS011;17384;51.214;9.202;2023-11-22T01:44:17;10.40;;;6.28;;
30617;SDS011;17384;51.214;9.202;2023-11-22T01:46:43;10.65;;;6.40;;
30617;SDS011;17384;51.214;9.202;2023-11-22T01:49:09;11.43;;;6.68;;
30617;SDS011;17384;51.214;9.202;2023-11-22T01:51:35;10.40;;;6.07;;
30617;SDS011;17384;51.214;9.202;2023-11-22T01:54:04;11.88;;;6.35;;
30617;SDS011;17384;51.214;9.202;2023-11-22T01:56:32;11.70;;;6.82;;
30617;SDS011;17384;51.214;9.202;2023-11-22T01:59:02;13.52;;;6.55;;
30617;SDS011;17384;51.214;9.202;2023-11-22T02:01:28;12.13;;;6.53;;
30617;SDS011;17384;51.214;9.202;2023-11-22T02:03:54;13.40;;;6.63;;
30617;SDS011;17384;51.214;9.202;2023-11-22T02:06:20;18.88;;;6.28;;
30617;SDS011;17384;51.214;9.202;2023-11-22T02:08:46;9.85;;;6.28;;
30617;SDS011;17384;51.214;9.202;2023-11-22T02:11:12;14.90;;;5.57;;
30617;SDS011;17384;51.214;9.202;2023-11-22T02:13:38;11.38;;;6.47;;
30617;SDS011;17384;51.214;9.202;2023-11-22T02:16:03;12.82;;;6.25;;
30617;SDS011;17384;51.214;9.202;2023-11-22T02:18:29;10.23;;;6.45;;
30617;SDS011;17384;51.214;9.202;2023-11-22T02:20:56;12.80;;;6.15;;
30617;SDS011;17384;51.214;9.202;2023-11-22T02:23:21;12.23;;;6.82;;
30617;SDS011;17384;51.214;9.202;2023-11-22T02:25:47;10.88;;;6.45;;
30617;SDS011;17384;51.214;9.202;2023-11-22T02:28:13;9.60;;;6.05;;
30617;SDS011;17384;51.214;9.202;2023-11-22T02:30:39;10.05;;;5.50;;
30617;SDS011;17384;51.214;9.202;2023-11-22T02:33:05;10.43;;;6.47;;
30617;SDS011;17384;51.214;9.202;2023-11-22T02:35:30;14.68;;;7.35;;
30617;SDS011;17384;51.214;9.202;2023-11-22T02:37:57;12.55;;;6.47;;
30617;SDS011;17384;51.214;9.202;2023-11-22T02:40:23;11.18;;;5.93;;
30617;SDS011;17384;51.214;9.202;2023-11-22T02:42:49;12.05;;;6.38;;
30617;SDS011;17384;51.214;9.202;2023-11-22T02:45:16;13.20;;;6.70;;
30617;SDS011;17384;51.214;9.202;2023-11-22T02:47:48;13.57;;;7.00;;
30617;SDS011;17384;51.214;9.202;2023-11-22T02:50:14;13.13;;;6.97;;
30617;SDS011;17384;51.214;9.202;2023-11-22T02:52:40;17.98;;;7.75;;
30617;SDS011;17384;51.214;9.202;2023-11-22T02:55:07;11.52;;;6.82;;
30617;SDS011;17384;51.214;9.202;2023-11-22T02:57:39;13.80;;;6.85;;
30617;SDS011;17384;51.214;9.202;2023-11-22T03:00:05;11.85;;;6.85;;
30617;SDS011;17384;51.214;9.202;2023-11-22T03:02:38;14.18;;;7.10;;
30617;SDS011;17384;51.214;9.202;2023-11-22T03:05:04;14.93;;;6.57;;
30617;SDS011;17384;51.214;9.202;2023-11-22T03:07:30;14.50;;;6.82;;
30617;SDS011;17384;51.214;9.202;2023-11-22T03:09:56;14.25;;;7.18;;
30617;SDS011;17384;51.214;9.202;2023-11-22T03:12:25;11.25;;;6.20;;
30617;SDS011;17384;51.214;9.202;2023-11-22T03:14:50;11.38;;;6.10;;
30617;SDS011;17384;51.214;9.202;2023-11-22T03:17:16;11.00;;;6.35;;
30617;SDS011;17384;51.214;9.202;2023-11-22T03:19:41;11.60;;;6.03;;
30617;SDS011;17384;51.214;9.202;2023-11-22T03:22:07;12.63;;;6.28;;
30617;SDS011;17384;51.214;9.202;2023-11-22T03:24:32;12.07;;;6.45;;
30617;SDS011;17384;51.214;9.202;2023-11-22T03:27:02;13.30;;;6.43;;
30617;SDS011;17384;51.214;9.202;2023-11-22T03:29:28;11.68;;;6.63;;
30617;SDS011;17384;51.214;9.202;2023-11-22T03:31:54;9.30;;;6.40;;
30617;SDS011;17384;51.214;9.202;2023-11-22T03:34:19;13.30;;;6.00;;
30617;SDS011;17384;51.214;9.202;2023-11-22T03:36:45;21.70;;;7.28;;
30617;SDS011;17384;51.214;9.202;2023-11-22T03:39:10;14.65;;;7.03;;
30617;SDS011;17384;51.214;9.202;2023-11-22T03:41:36;13.77;;;7.40;;
30617;SDS011;17384;51.214;9.202;2023-11-22T03:44:05;11.15;;;6.70;;
30617;SDS011;17384;51.214;9.202;2023-11-22T03:46:33;12.73;;;6.65;;
30617;SDS011;17384;51.214;9.202;2023-11-22T03:49:00;13.73;;;6.05;;
30617;SDS011;17384;51.214;9.202;2023-11-22T03:51:28;14.23;;;7.25;;
30617;SDS011;17384;51.214;9.202;2023-11-22T03:53:53;13.90;;;6.70;;
30617;SDS011;17384;51.214;9.202;2023-11-22T03:56:18;11.77;;;6.40;;
30617;SDS011;17384;51.214;9.202;2023-11-22T03:58:44;26.70;;;8.45;;
30617;SDS011;17384;51.214;9.202;2023-11-22T04:01:09;12.00;;;6.60;;
30617;SDS011;17384;51.214;9.202;2023-11-22T04:03:35;12.85;;;6.53;;
30617;SDS011;17384;51.214;9.202;2023-11-22T04:06:00;11.95;;;6.13;;
30617;SDS011;17384;51.214;9.202;2023-11-22T04:08:26;14.82;;;6.78;;
30617;SDS011;17384;51.214;9.202;2023-11-22T04:10:51;13.35;;;6.40;;
30617;SDS011;17384;51.214;9.202;2023-11-22T04:13:17;15.20;;;7.57;;
30617;SDS011;17384;51.214;9.202;2023-11-22T04:15:42;16.42;;;7.80;;
30617;SDS011;17384;51.214;9.202;2023-11-22T04:18:08;15.43;;;6.60;;
30617;SDS011;17384;51.214;9.202;2023-11-22T04:20:33;13.65;;;7.13;;
30617;SDS011;17384;51.214;9.202;2023-11-22T04:22:59;14.45;;;7.00;;
30617;SDS011;17384;51.214;9.202;2023-11-22T04:25:24;15.40;;;7.10;;
30617;SDS011;17384;51.214;9.202;2023-11-22T04:27:50;10.90;;;6.65;;
30617;SDS011;17384;51.214;9.202;2023-11-22T04:30:15;13.30;;;7.63;;
30617;SDS011;17384;51.214;9.202;2023-11-22T04:32:42;13.23;;;6.78;;
30617;SDS011;17384;51.214;9.202;2023-11-22T04:35:08;12.50;;;7.03;;
30617;SDS011;17384;51.214;9.202;2023-11-22T04:37:35;15.40;;;7.53;;
30617;SDS011;17384;51.214;9.202;2023-11-22T04:40:00;15.82;;;7.90;;
30617;SDS011;17384;51.214;9.202;2023-11-22T04:42:32;17.80;;;8.30;;
30617;SDS011;17384;51.214;9.202;2023-11-22T04:44:59;16.73;;;7.45;;
30617;SDS011;17384;51.214;9.202;2023-11-22T04:47:24;20.77;;;8.63;;
30617;SDS011;17384;51.214;9.202;2023-11-22T04:49:50;15.57;;;7.75;;
30617;SDS011;17384;51.214;9.202;2023-11-22T04:52:16;18.13;;;7.75;;
30617;SDS011;17384;51.214;9.202;2023-11-22T04:54:41;18.70;;;8.55;;
30617;SDS011;17384;51.214;9.202;2023-11-22T04:57:07;17.08;;;7.28;;
30617;SDS011;17384;51.214;9.202;2023-11-22T04:59:32;17.58;;;8.40;;
30617;SDS011;17384;51.214;9.202;2023-11-22T05:01:57;20.30;;;8.55;;
30617;SDS011;17384;51.214;9.202;2023-11-22T05:04:23;17.85;;;8.38;;
30617;SDS011;17384;51.214;9.202;2023-11-22T05:06:48;11.88;;;6.88;;
30617;SDS011;17384;51.214;9.202;2023-11-22T05:09:14;14.13;;;8.25;;
30617;SDS011;17384;51.214;9.202;2023-11-22T05:11:39;14.77;;;7.10;;
30617;SDS011;17384;51.214;9.202;2023-11-22T05:14:09;17.55;;;8.73;;
30617;SDS011;17384;51.214;9.202;2023-11-22T05:16:35;21.08;;;11.52;;
30617;SDS011;17384;51.214;9.202;2023-11-22T05:19:00;23.30;;;11.15;;
30617;SDS011;17384;51.214;9.202;2023-11-22T05:21:26;20.50;;;12.55;;
30617;SDS011;17384;51.214;9.202;2023-11-22T05:23:52;31.95;;;14.65;;
30617;SDS011;17384;51.214;9.202;2023-11-22T05:26:19;35.15;;;17.70;;
30617;SDS011;17384;51.214;9.202;2023-11-22T05:28:45;27.85;;;14.50;;
30617;SDS011;17384;51.214;9.202;2023-11-22T05:31:12;37.42;;;19.67;;
30617;SDS011;17384;51.214;9.202;2023-11-22T05:33:38;26.17;;;13.27;;
30617;SDS011;17384;51.214;9.202;2023-11-22T05:36:05;23.42;;;11.85;;
30617;SDS011;17384;51.214;9.202;2023-11-22T05:38:31;21.50;;;10.20;;
30617;SDS011;17384;51.214;9.202;2023-11-22T05:40:58;13.70;;;7.45;;
30617;SDS011;17384;51.214;9.202;2023-11-22T05:43:25;12.80;;;7.53;;
30617;SDS011;17384;51.214;9.202;2023-11-22T05:45:52;15.82;;;8.20;;
30617;SDS011;17384;51.214;9.202;2023-11-22T05:48:17;13.88;;;7.40;;
30617;SDS011;17384;51.214;9.202;2023-11-22T05:50:44;15.52;;;8.63;;
30617;SDS011;17384;51.214;9.202;2023-11-22T05:53:10;18.90;;;11.32;;
30617;SDS011;17384;51.214;9.202;2023-11-22T05:55:37;14.10;;;8.23;;
30617;SDS011;17384;51.214;9.202;2023-11-22T05:58:03;15.23;;;8.32;;
30617;SDS011;17384;51.214;9.202;2023-11-22T06:00:29;14.07;;;8.43;;
30617;SDS011;17384;51.214;9.202;2023-11-22T06:02:54;16.27;;;8.43;;
30617;SDS011;17384;51.214;9.202;2023-11-22T06:05:20;14.55;;;8.93;;
30617;SDS011;17384;51.214;9.202;2023-11-22T06:07:46;20.05;;;7.72;;
30617;SDS011;17384;51.214;9.202;2023-11-22T06:10:12;15.07;;;8.25;;
30617;SDS011;17384;51.214;9.202;2023-11-22T06:12:39;15.93;;;8.18;;
30617;SDS011;17384;51.214;9.202;2023-11-22T06:15:05;20.77;;;9.48;;
30617;SDS011;17384;51.214;9.202;2023-11-22T06:17:31;75.78;;;31.80;;
30617;SDS011;17384;51.214;9.202;2023-11-22T06:19:56;25.13;;;11.25;;
30617;SDS011;17384;51.214;9.202;2023-11-22T06:22:22;18.08;;;11.07;;
30617;SDS011;17384;51.214;9.202;2023-11-22T06:24:47;21.65;;;12.75;;
30617;SDS011;17384;51.214;9.202;2023-11-22T06:27:13;16.50;;;9.23;;
30617;SDS011;17384;51.214;9.202;2023-11-22T06:29:40;21.35;;;11.75;;
30617;SDS011;17384;51.214;9.202;2023-11-22T06:32:07;24.50;;;12.30;;
30617;SDS011;17384;51.214;9.202;2023-11-22T06:34:33;15.45;;;9.90;;
30617;SDS011;17384;51.214;9.202;2023-11-22T06:36:58;13.80;;;8.85;;
30617;SDS011;17384;51.214;9.202;2023-11-22T06:39:24;14.32;;;8.20;;
30617;SDS011;17384;51.214;9.202;2023-11-22T06:41:50;16.75;;;7.82;;
30617;SDS011;17384;51.214;9.202;2023-11-22T06:44:16;14.00;;;7.68;;
30617;SDS011;17384;51.214;9.202;2023-11-22T06:46:41;15.32;;;8.65;;
30617;SDS011;17384;51.214;9.202;2023-11-22T06:49:06;13.45;;;8.35;;
30617;SDS011;17384;51.214;9.202;2023-11-22T06:51:32;20.23;;;7.88;;
30617;SDS011;17384;51.214;9.202;2023-11-22T06:53:57;15.30;;;7.72;;
30617;SDS011;17384;51.214;9.202;2023-11-22T06:56:23;10.23;;;6.72;;
30617;SDS011;17384;51.214;9.202;2023-11-22T06:58:48;13.70;;;7.60;;
30617;SDS011;17384;51.214;9.202;2023-11-22T07:01:14;10.18;;;6.82;;
30617;SDS011;17384;51.214;9.202;2023-11-22T07:03:40;9.93;;;6.13;;
30617;SDS011;17384;51.214;9.202;2023-11-22T07:06:08;10.73;;;5.93;;
30617;SDS011;17384;51.214;9.202;2023-11-22T07:08:46;10.98;;;6.40;;
30617;SDS011;17384;51.214;9.202;2023-11-22T07:11:12;12.30;;;6.40;;
30617;SDS011;17384;51.214;9.202;2023-11-22T07:13:38;12.13;;;6.50;;
30617;SDS011;17384;51.214;9.202;2023-11-22T07:16:05;14.15;;;8.13;;
30617;SDS011;17384;51.214;9.202;2023-11-22T07:18:32;13.00;;;7.05;;
30617;SDS011;17384;51.214;9.202;2023-11-22T07:20:59;13.43;;;6.28;;
30617;SDS011;17384;51.214;9.202;2023-11-22T07:23:25;13.18;;;6.63;;
30617;SDS011;17384;51.214;9.202;2023-11-22T07:25:54;15.52;;;9.73;;
30617;SDS011;17384;51.214;9.202;2023-11-22T07:28:21;15.07;;;7.57;;
30617;SDS011;17384;51.214;9.202;2023-11-22T07:30:47;12.50;;;7.68;;
30617;SDS011;17384;51.214;9.202;2023-11-22T07:33:17;16.83;;;7.57;;
30617;SDS011;17384;51.214;9.202;2023-11-22T07:35:45;25.08;;;10.52;;
30617;SDS011;17384;51.214;9.202;2023-11-22T07:38:11;13.15;;;7.50;;
30617;SDS011;17384;51.214;9.202;2023-11-22T07:40:37;19.50;;;10.13;;
30617;SDS011;17384;51.214;9.202;2023-11-22T07:43:02;13.77;;;7.50;;
30617;SDS011;17384;51.214;9.202;2023-11-22T07:45:30;12.30;;;6.82;;
30617;SDS011;17384;51.214;9.202;2023-11-22T07:47:57;18.70;;;6.80;;
30617;SDS011;17384;51.214;9.202;2023-11-22T07:50:24;10.38;;;6.55;;
30617;SDS011;17384;51.214;9.202;2023-11-22T07:52:54;16.35;;;8.40;;
30617;SDS011;17384;51.214;9.202;2023-11-22T07:55:21;13.38;;;7.28;;
30617;SDS011;17384;51.214;9.202;2023-11-22T07:57:48;10.30;;;5.97;;
30617;SDS011;17384;51.214;9.202;2023-11-22T08:00:18;9.68;;;6.07;;
30617;SDS011;17384;51.214;9.202;2023-11-22T08:02:47;12.32;;;6.15;;
30617;SDS011;17384;51.214;9.202;2023-11-22T08:05:13;9.35;;;5.57;;
30617;SDS011;17384;51.214;9.202;2023-11-22T08:07:40;8.57;;;4.97;;
30617;SDS011;17384;51.214;9.202;2023-11-22T08:10:09;8.93;;;5.40;;
30617;SDS011;17384;51.214;9.202;2023-11-22T08:12:42;13.18;;;5.28;;
30617;SDS011;17384;51.214;9.202;2023-11-22T08:15:10;14.85;;;6.57;;
30617;SDS011;17384;51.214;9.202;2023-11-22T08:17:37;11.80;;;6.32;;
30617;SDS011;17384;51.214;9.202;2023-11-22T08:20:06;8.88;;;5.30;;
30617;SDS011;17384;51.214;9.202;2023-11-22T08:22:36;11.75;;;5.70;;
30617;SDS011;17384;51.214;9.202;2023-11-22T08:25:04;8.20;;;5.03;;
30617;SDS011;17384;51.214;9.202;2023-11-22T08:27:30;8.82;;;4.90;;
30617;SDS011;17384;51.214;9.202;2023-11-22T08:29:56;8.50;;;5.15;;
30617;SDS011;17384;51.214;9.202;2023-11-22T08:32:22;10.73;;;6.82;;
30617;SDS011;17384;51.214;9.202;2023-11-22T08:34:50;15.52;;;9.70;;
30617;SDS011;17384;51.214;9.202;2023-11-22T08:37:16;16.50;;;10.45;;
30617;SDS011;17384;51.214;9.202;2023-11-22T08:39:42;20.27;;;10.63;;
30617;SDS011;17384;51.214;9.202;2023-11-22T08:42:08;18.00;;;10.50;;
30617;SDS011;17384;51.214;9.202;2023-11-22T08:44:36;17.23;;;9.40;;
30617;SDS011;17384;51.214;9.202;2023-11-22T08:47:03;11.38;;;6.05;;
30617;SDS011;17384;51.214;9.202;2023-11-22T08:49:29;7.28;;;4.40;;
30617;SDS011;17384;51.214;9.202;2023-11-22T08:51:54;7.65;;;4.90;;
30617;SDS011;17384;51.214;9.202;2023-11-22T08:54:21;8.07;;;4.43;;
30617;SDS011;17384;51.214;9.202;2023-11-22T08:56:47;8.15;;;4.55;;
30617;SDS011;17384;51.214;9.202;2023-11-22T08:59:12;8.35;;;4.70;;
30617;SDS011;17384;51.214;9.202;2023-11-22T09:01:38;7.35;;;4.38;;
30617;SDS011;17384;51.214;9.202;2023-11-22T09:04:04;7.35;;;3.78;;
30617;SDS011;17384;51.214;9.202;2023-11-22T09:06:30;8.63;;;4.45;;
30617;SDS011;17384;51.214;9.202;2023-11-22T09:08:56;8.02;;;3.97;;
30617;SDS011;17384;51.214;9.202;2023-11-22T09:11:21;7.13;;;4.53;;
30617;SDS011;17384;51.214;9.202;2023-11-22T09:13:47;6.80;;;4.75;;
30617;SDS011;17384;51.214;9.202;2023-11-22T09:16:15;8.57;;;4.40;;
30617;SDS011;17384;51.214;9.202;2023-11-22T09:18:42;6.80;;;4.45;;
30617;SDS011;17384;51.214;9.202;2023-11-22T09:21:10;6.88;;;4.55;;
30617;SDS011;17384;51.214;9.202;2023-11-22T09:23:36;6.50;;;4.18;;
30617;SDS011;17384;51.214;9.202;2023-11-22T09:26:02;7.88;;;5.03;;
30617;SDS011;17384;51.214;9.202;2023-11-22T09:28:27;6.57;;;4.80;;
30617;SDS011;17384;51.214;9.202;2023-11-22T09:30:53;7.10;;;4.55;;
30617;SDS011;17384;51.214;9.202;2023-11-22T09:33:26;7.85;;;4.70;;
30617;SDS011;17384;51.214;9.202;2023-11-22T09:35:52;6.25;;;4.10;;
30617;SDS011;17384;51.214;9.202;2023-11-22T09:38:17;10.35;;;4.95;;
30617;SDS011;17384;51.214;9.202;2023-11-22T09:40:43;11.73;;;5.00;;
30617;SDS011;17384;51.214;9.202;2023-11-22T09:43:10;6.90;;;4.57;;
30617;SDS011;17384;51.214;9.202;2023-11-22T09:45:36;9.70;;;5.18;;
30617;SDS011;17384;51.214;9.202;2023-11-22T09:48:14;8.60;;;4.95;;
30617;SDS011;17384;51.214;9.202;2023-11-22T09:55:55;6.03;;;4.40;;
30617;SDS011;17384;51.214;9.202;2023-11-22T09:58:21;9.07;;;5.18;;
30617;SDS011;17384;51.214;9.202;2023-11-22T10:00:47;8.88;;;5.80;;
30617;SDS011;17384;51.214;9.202;2023-11-22T10:03:12;7.18;;;4.68;;
30617;SDS011;17384;51.214;9.202;2023-11-22T10:05:42;12.00;;;5.40;;
30617;SDS011;17384;51.214;9.202;2023-11-22T10:08:08;10.07;;;5.35;;
30617;SDS011;17384;51.214;9.202;2023-11-22T10:10:34;12.32;;;6.07;;
30617;SDS011;17384;51.214;9.202;2023-11-22T10:13:01;12.43;;;6.38;;
30617;SDS011;17384;51.214;9.202;2023-11-22T10:15:28;13.18;;;5.70;;
30617;SDS011;17384;51.214;9.202;2023-11-22T10:20:35;14.15;;;5.82;;
30617;SDS011;17384;51.214;9.202;2023-11-22T10:23:11;12.33;;;5.90;;
30617;SDS011;17384;51.214;9.202;2023-11-22T10:28:15;9.30;;;5.65;;
30617;SDS011;17384;51.214;9.202;2023-11-22T10:30:43;11.32;;;5.60;;
30617;SDS011;17384;51.214;9.202;2023-11-22T10:33:12;7.75;;;5.18;;
30617;SDS011;17384;51.214;9.202;2023-11-22T10:35:43;13.27;;;5.57;;
30617;SDS011;17384;51.214;9.202;2023-11-22T10:38:09;9.52;;;5.60;;
30617;SDS011;17384;51.214;9.202;2023-11-22T10:40:38;10.43;;;5.85;;
30617;SDS011;17384;51.214;9.202;2023-11-22T10:43:04;7.70;;;4.88;;
30617;SDS011;17384;51.214;9.202;2023-11-22T10:45:32;7.75;;;4.78;;
30617;SDS011;17384;51.214;9.202;2023-11-22T10:48:00;8.70;;;5.63;;
30617;SDS011;17384;51.214;9.202;2023-11-22T10:50:26;7.53;;;4.10;;
30617;SDS011;17384;51.214;9.202;2023-11-22T10:52:53;10.43;;;4.82;;
30617;SDS011;17384;51.214;9.202;2023-11-22T10:55:25;7.00;;;4.32;;
30617;SDS011;17384;51.214;9.202;2023-11-22T10:57:52;7.20;;;4.47;;
30617;SDS011;17384;51.214;9.202;2023-11-22T11:00:21;8.65;;;5.35;;
30617;SDS011;17384;51.214;9.202;2023-11-22T11:02:54;7.72;;;5.05;;
30617;SDS011;17384;51.214;9.202;2023-11-22T11:05:27;8.25;;;4.63;;
30617;SDS011;17384;51.214;9.202;2023-11-22T11:08:06;8.98;;;5.20;;
30617;SDS011;17384;51.214;9.202;2023-11-22T11:10:39;7.63;;;5.15;;
30617;SDS011;17384;51.214;9.202;2023-11-22T11:13:06;8.93;;;4.30;;
30617;SDS011;17384;51.214;9.202;2023-11-22T11:15:34;7.00;;;4.80;;
30617;SDS011;17384;51.214;9.202;2023-11-22T11:18:01;11.43;;;4.60;;
30617;SDS011;17384;51.214;9.202;2023-11-22T11:20:32;5.13;;;3.80;;
30617;SDS011;17384;51.214;9.202;2023-11-22T11:23:01;5.55;;;3.33;;
30617;SDS011;17384;51.214;9.202;2023-11-22T11:25:31;8.13;;;4.50;;
30617;SDS011;17384;51.214;9.202;2023-11-22T11:27:58;6.65;;;3.97;;
30617;SDS011;17384;51.214;9.202;2023-11-22T11:33:17;7.32;;;4.00;;
30617;SDS011;17384;51.214;9.202;2023-11-22T11:35:50;6.43;;;3.97;;
30617;SDS011;17384;51.214;9.202;2023-11-22T11:38:16;4.35;;;3.33;;
30617;SDS011;17384;51.214;9.202;2023-11-22T11:40:51;7.13;;;4.13;;
30617;SDS011;17384;51.214;9.202;2023-11-22T11:46:06;6.75;;;4.10;;
30617;SDS011;17384;51.214;9.202;2023-11-22T11:48:34;7.75;;;4.50;;
30617;SDS011;17384;51.214;9.202;2023-11-22T11:51:00;7.13;;;4.55;;
30617;SDS011;17384;51.214;9.202;2023-11-22T11:53:26;5.18;;;3.30;;
30617;SDS011;17384;51.214;9.202;2023-11-22T11:55:52;3.92;;;3.45;;
30617;SDS011;17384;51.214;9.202;2023-11-22T11:58:19;5.93;;;3.67;;
30617;SDS011;17384;51.214;9.202;2023-11-22T12:00:44;8.23;;;3.53;;
30617;SDS011;17384;51.214;9.202;2023-11-22T12:03:10;5.72;;;3.67;;
30617;SDS011;17384;51.214;9.202;2023-11-22T12:05:36;5.85;;;3.88;;
30617;SDS011;17384;51.214;9.202;2023-11-22T12:08:02;4.45;;;3.28;;
30617;SDS011;17384;51.214;9.202;2023-11-22T12:10:28;7.25;;;3.38;;
30617;SDS011;17384;51.214;9.202;2023-11-22T12:12:54;6.97;;;4.13;;
30617;SDS011;17384;51.214;9.202;2023-11-22T12:15:20;5.00;;;3.65;;
30617;SDS011;17384;51.214;9.202;2023-11-22T12:17:48;6.55;;;4.25;;
30617;SDS011;17384;51.214;9.202;2023-11-22T12:20:16;5.80;;;3.65;;
30617;SDS011;17384;51.214;9.202;2023-11-22T12:22:43;8.82;;;3.60;;
30617;SDS011;17384;51.214;9.202;2023-11-22T12:25:10;4.68;;;3.35;;
30617;SDS011;17384;51.214;9.202;2023-11-22T12:27:42;4.30;;;3.20;;
30617;SDS011;17384;51.214;9.202;2023-11-22T12:30:22;4.70;;;3.63;;
30617;SDS011;17384;51.214;9.202;2023-11-22T12:32:53;6.82;;;3.72;;
30617;SDS011;17384;51.214;9.202;2023-11-22T12:35:19;4.80;;;3.25;;
30617;SDS011;17384;51.214;9.202;2023-11-22T12:37:44;3.28;;;2.70;;
30617;SDS011;17384;51.214;9.202;2023-11-22T12:40:12;4.70;;;3.15;;
30617;SDS011;17384;51.214;9.202;2023-11-22T12:42:50;5.13;;;3.40;;
30617;SDS011;17384;51.214;9.202;2023-11-22T12:45:18;5.53;;;3.10;;
30617;SDS011;17384;51.214;9.202;2023-11-22T12:47:45;5.22;;;3.60;;
30617;SDS011;17384;51.214;9.202;2023-11-22T12:50:28;5.55;;;3.35;;
30617;SDS011;17384;51.214;9.202;2023-11-22T12:52:57;5.70;;;3.15;;
30617;SDS011;17384;51.214;9.202;2023-11-22T12:55:23;5.43;;;3.53;;
30617;SDS011;17384;51.214;9.202;2023-11-22T12:57:56;4.53;;;3.47;;
30617;SDS011;17384;51.214;9.202;2023-11-22T13:00:23;3.50;;;2.90;;
30617;SDS011;17384;51.214;9.202;2023-11-22T13:02:49;3.88;;;3.28;;
30617;SDS011;17384;51.214;9.202;2023-11-22T13:05:15;6.18;;;3.30;;
30617;SDS011;17384;51.214;9.202;2023-11-22T13:07:41;6.45;;;3.88;;
30617;SDS011;17384;51.214;9.202;2023-11-22T13:10:08;4.50;;;2.58;;
30617;SDS011;17384;51.214;9.202;2023-11-22T13:12:35;4.45;;;3.45;;
30617;SDS011;17384;51.214;9.202;2023-11-22T13:15:00;5.32;;;3.38;;
30617;SDS011;17384;51.214;9.202;2023-11-22T13:17:26;7.57;;;3.30;;
30617;SDS011;17384;51.214;9.202;2023-11-22T13:19:51;9.55;;;4.82;;
30617;SDS011;17384;51.214;9.202;2023-11-22T13:22:17;6.60;;;3.05;;
30617;SDS011;17384;51.214;9.202;2023-11-22T13:24:44;5.45;;;3.40;;
30617;SDS011;17384;51.214;9.202;2023-11-22T13:27:09;6.03;;;3.45;;
30617;SDS011;17384;51.214;9.202;2023-11-22T13:29:35;5.07;;;3.10;;
30617;SDS011;17384;51.214;9.202;2023-11-22T13:32:02;4.43;;;2.97;;
30617;SDS011;17384;51.214;9.202;2023-11-22T13:34:28;4.55;;;3.00;;
30617;SDS011;17384;51.214;9.202;2023-11-22T13:36:53;5.68;;;3.22;;
30617;SDS011;17384;51.214;9.202;2023-11-22T13:39:20;5.03;;;3.50;;
30617;SDS011;17384;51.214;9.202;2023-11-22T13:41:46;5.07;;;3.63;;
30617;SDS011;17384;51.214;9.202;2023-11-22T13:44:14;7.80;;;3.65;;
30617;SDS011;17384;51.214;9.202;2023-11-22T13:46:40;7.15;;;4.00;;
30617;SDS011;17384;51.214;9.202;2023-11-22T13:49:05;5.32;;;3.60;;
30617;SDS011;17384;51.214;9.202;2023-11-22T13:51:31;8.80;;;5.90;;
30617;SDS011;17384;51.214;9.202;2023-11-22T13:53:57;5.55;;;4.15;;
30617;SDS011;17384;51.214;9.202;2023-11-22T13:56:22;7.10;;;4.65;;
30617;SDS011;17384;51.214;9.202;2023-11-22T13:58:48;5.57;;;3.90;;
30617;SDS011;17384;51.214;9.202;2023-11-22T14:01:13;5.75;;;3.78;;
30617;SDS011;17384;51.214;9.202;2023-11-22T14:03:46;26.85;;;13.55;;
30617;SDS011;17384;51.214;9.202;2023-11-22T14:06:12;11.10;;;8.90;;
30617;SDS011;17384;51.214;9.202;2023-11-22T14:08:41;8.63;;;4.13;;
30617;SDS011;17384;51.214;9.202;2023-11-22T14:11:07;6.20;;;4.00;;
30617;SDS011;17384;51.214;9.202;2023-11-22T14:13:32;6.07;;;4.25;;
30617;SDS011;17384;51.214;9.202;2023-11-22T14:15:58;9.15;;;4.28;;
30617;SDS011;17384;51.214;9.202;2023-11-22T14:18:23;8.00;;;4.05;;
30617;SDS011;17384;51.214;9.202;2023-11-22T14:20:50;6.53;;;4.15;;
30617;SDS011;17384;51.214;9.202;2023-11-22T14:23:16;5.75;;;3.95;;
30617;SDS011;17384;51.214;9.202;2023-11-22T14:25:42;5.50;;;4.13;;
30617;SDS011;17384;51.214;9.202;2023-11-22T14:28:08;8.05;;;5.00;;
30617;SDS011;17384;51.214;9.202;2023-11-22T14:30:33;8.48;;;6.28;;
30617;SDS011;17384;51.214;9.202;2023-11-22T14:33:01;6.97;;;4.43;;
30617;SDS011;17384;51.214;9.202;2023-11-22T14:35:31;7.43;;;4.30;;
30617;SDS011;17384;51.214;9.202;2023-11-22T14:37:58;17.00;;;9.70;;
30617;SDS011;17384;51.214;9.202;2023-11-22T14:40:25;11.15;;;6.03;;
30617;SDS011;17384;51.214;9.202;2023-11-22T14:42:51;7.60;;;4.13;;
30617;SDS011;17384;51.214;9.202;2023-11-22T14:45:19;5.93;;;4.35;;
30617;SDS011;17384;51.214;9.202;2023-11-22T14:47:51;5.78;;;4.07;;
30617;SDS011;17384;51.214;9.202;2023-11-22T14:50:17;11.82;;;4.40;;
30617;SDS011;17384;51.214;9.202;2023-11-22T14:52:42;8.77;;;4.63;;